»·PEaware :: WAT234 KPSP-KOXR

WAT234 :: KPSP-KOXR

FLIGHT INFORMATION

Flight Status: Arrived
Operator:
Walker Air Transport
More flights by this operator :: More flights under this callsign
Pilot: Eduardo Elias G. (24838)
Aircraft: SOCATA TBM-900
(TBM9)
More flights by this aircraft type
Origin: KPSP Palm Springs Intl
United States
Destination: KOXR Oxnard
United States
More flights between these airports :: More routes between these airports
Route: +CATH1 PSP V388 DEWAY POM VNY V186 FIM
File this flight plan on PilotEdge
Remarks: Tec route PSPP15
Altitude:
(Current/Filed)
12,000ft
Speed:
(Current/Filed)
260kts
Departed: 25-Aug-20 07:56 PM
Arrived: 25-Aug-20 08:42 PM
Distance/Time
Traveled:
74nm/0:46
Distance/Time
To Go:
Arrived

Flight Plot

Page will automatically refresh every two minutes.

Flight plan parsing failed; only flown route is shown


Map Options




Map Legend


Flown Route
Filed Route
Departure Airport
Arrival Airport
Navaid (VOR, NDB)
Fix

Horizontal Profiles

Position Reports

Time Latitude Longitude Heading Altitude Ground
Speed
25-Aug-20 19:32 33.824253 -116.498464 54 429ft 0kts
25-Aug-20 19:34 33.824253 -116.498464 54 429ft 0kts
25-Aug-20 19:34 33.824253 -116.498464 54 429ft 0kts
25-Aug-20 19:35 33.824253 -116.498463 54 429ft 0kts
25-Aug-20 19:36 33.824253 -116.498463 54 429ft 0kts
25-Aug-20 19:37 33.824253 -116.498463 54 429ft 0kts
25-Aug-20 19:38 33.824253 -116.498463 54 429ft 0kts
25-Aug-20 19:39 33.824253 -116.498463 54 429ft 0kts
25-Aug-20 19:40 33.824253 -116.498463 54 429ft 0kts
25-Aug-20 19:41 33.824253 -116.498463 54 429ft 0kts
25-Aug-20 19:42 33.824253 -116.498463 54 429ft 0kts
25-Aug-20 19:43 33.824253 -116.498463 54 429ft 0kts
25-Aug-20 19:44 33.824253 -116.498463 54 429ft 0kts
25-Aug-20 19:45 33.824253 -116.498463 54 429ft 0kts
25-Aug-20 19:46 33.824590 -116.498427 314 429ft 0kts
25-Aug-20 19:47 33.824987 -116.498995 239 429ft 0kts
25-Aug-20 19:48 33.824987 -116.498995 239 429ft 0kts
25-Aug-20 19:49 33.824987 -116.498995 239 429ft 0kts
25-Aug-20 19:50 33.824679 -116.499551 232 429ft 0kts
25-Aug-20 19:51 33.824679 -116.499551 232 429ft 0kts
25-Aug-20 19:52 33.824679 -116.499551 232 429ft 0kts
25-Aug-20 19:53 33.824678 -116.499552 233 429ft 0kts
25-Aug-20 19:54 33.824677 -116.499553 233 429ft 0kts
25-Aug-20 19:55 33.826751 -116.502203 326 429ft 87kts
25-Aug-20 19:56 33.855275 -116.528795 319 2916ft 136kts
25-Aug-20 19:57 33.884681 -116.558094 317 5844ft 141kts
25-Aug-20 19:58 33.916986 -116.581423 278 8574ft 144kts
25-Aug-20 19:59 33.926002 -116.630112 280 11392ft 156kts
25-Aug-20 20:00 33.939610 -116.696497 281 12030ft 248kts
25-Aug-20 20:01 33.954274 -116.783740 276 12005ft 275kts
25-Aug-20 20:02 33.966329 -116.878201 276 12001ft 278kts
25-Aug-20 20:03 33.978910 -116.977486 276 11867ft 283kts
25-Aug-20 20:04 33.990904 -117.072738 275 11854ft 278kts
25-Aug-20 20:05 34.003063 -117.169862 275 11856ft 276kts
25-Aug-20 20:06 34.014825 -117.264639 274 11882ft 274kts
25-Aug-20 20:07 34.026243 -117.357039 274 11882ft 271kts
25-Aug-20 20:08 34.038074 -117.453411 274 11882ft 270kts
25-Aug-20 20:09 34.049633 -117.548402 274 11882ft 269kts
25-Aug-20 20:10 34.060871 -117.641193 274 11882ft 269kts
25-Aug-20 20:11 34.072033 -117.733963 273 11884ft 269kts
25-Aug-20 20:12 34.086597 -117.826565 279 11614ft 280kts
25-Aug-20 20:13 34.106849 -117.923859 280 10205ft 277kts
25-Aug-20 20:14 34.125546 -118.013954 282 8745ft 263kts
25-Aug-20 20:15 34.143658 -118.101497 282 7388ft 251kts
25-Aug-20 20:16 34.160173 -118.181728 283 6009ft 227kts
25-Aug-20 20:17 34.174601 -118.251942 283 6001ft 206kts
25-Aug-20 20:18 34.189038 -118.322502 283 6000ft 213kts
25-Aug-20 20:19 34.203634 -118.394100 283 5444ft 233kts
25-Aug-20 20:20 34.219199 -118.470644 283 4996ft 221kts
25-Aug-20 20:21 34.219385 -118.544213 264 4994ft 204kts
25-Aug-20 20:22 34.214170 -118.610634 264 4987ft 174kts
25-Aug-20 20:23 34.209623 -118.668272 263 4997ft 159kts
25-Aug-20 20:24 34.205255 -118.723394 263 5001ft 157kts
25-Aug-20 20:25 34.200811 -118.779297 263 5002ft 161kts
25-Aug-20 20:26 34.197483 -118.835958 269 5000ft 160kts
25-Aug-20 20:27 34.199235 -118.893387 271 4534ft 171kts
25-Aug-20 20:28 34.198685 -118.944173 275 3507ft 137kts
25-Aug-20 20:29 34.199339 -118.984814 271 3248ft 98kts
25-Aug-20 20:30 34.199526 -119.017896 271 2973ft 95kts
25-Aug-20 20:31 34.199725 -119.051759 271 2435ft 97kts
25-Aug-20 20:32 34.199934 -119.084737 271 1916ft 98kts
25-Aug-20 20:33 34.200139 -119.115222 270 1425ft 104kts
25-Aug-20 20:41 34.199418 -119.212833 252 40ft 0kts
25-Aug-20 20:42 34.199418 -119.212833 252 40ft 0kts
25-Aug-20 20:43 34.199418 -119.212833 252 40ft 0kts
25-Aug-20 20:44 34.199418 -119.212833 252 40ft 0kts
25-Aug-20 20:45 34.199418 -119.212833 252 40ft 0kts
25-Aug-20 20:46 34.199418 -119.212833 252 40ft 0kts
25-Aug-20 20:47 34.199418 -119.212833 252 40ft 0kts
25-Aug-20 20:55 32.733203 -117.177582 17 20ft 0kts
25-Aug-20 20:56 32.733203 -117.177582 17 20ft 0kts

Navigation Log

Ident Type
Flight plan parsing failed, navigation log unavailable